sensor_id;sensor_type;location;lat;lon;timestamp;temperature;humidity
20648;DHT22;10483;44.646;10.924;2022-07-15T00:02:16;28.70;87.70
20648;DHT22;10483;44.646;10.924;2022-07-15T00:04:43;28.70;87.70
20648;DHT22;10483;44.646;10.924;2022-07-15T00:07:10;28.70;87.70
20648;DHT22;10483;44.646;10.924;2022-07-15T00:09:36;28.60;87.80
20648;DHT22;10483;44.646;10.924;2022-07-15T00:12:09;28.60;88.00
20648;DHT22;10483;44.646;10.924;2022-07-15T00:14:37;28.60;88.20
20648;DHT22;10483;44.646;10.924;2022-07-15T00:17:05;28.50;88.30
20648;DHT22;10483;44.646;10.924;2022-07-15T00:19:33;28.60;88.40
20648;DHT22;10483;44.646;10.924;2022-07-15T00:22:01;28.50;88.50
20648;DHT22;10483;44.646;10.924;2022-07-15T00:24:28;28.50;88.60
20648;DHT22;10483;44.646;10.924;2022-07-15T00:26:55;28.30;88.80
20648;DHT22;10483;44.646;10.924;2022-07-15T00:29:23;28.30;89.00
20648;DHT22;10483;44.646;10.924;2022-07-15T00:31:53;28.30;89.10
20648;DHT22;10483;44.646;10.924;2022-07-15T00:34:20;28.30;89.20
20648;DHT22;10483;44.646;10.924;2022-07-15T00:36:47;28.30;89.30
20648;DHT22;10483;44.646;10.924;2022-07-15T00:39:15;28.30;89.30
20648;DHT22;10483;44.646;10.924;2022-07-15T00:41:43;28.30;89.30
20648;DHT22;10483;44.646;10.924;2022-07-15T00:44:10;28.30;89.40
20648;DHT22;10483;44.646;10.924;2022-07-15T00:46:37;28.10;89.60
20648;DHT22;10483;44.646;10.924;2022-07-15T00:49:07;28.10;89.60
20648;DHT22;10483;44.646;10.924;2022-07-15T00:51:36;28.20;89.70
20648;DHT22;10483;44.646;10.924;2022-07-15T00:54:04;28.10;89.60
20648;DHT22;10483;44.646;10.924;2022-07-15T00:56:35;28.10;89.60
20648;DHT22;10483;44.646;10.924;2022-07-15T00:59:03;28.10;89.50
20648;DHT22;10483;44.646;10.924;2022-07-15T01:01:33;28.10;89.40
20648;DHT22;10483;44.646;10.924;2022-07-15T01:04:03;28.20;90.00
20648;DHT22;10483;44.646;10.924;2022-07-15T01:06:30;28.10;89.30
20648;DHT22;10483;44.646;10.924;2022-07-15T01:08:57;28.10;90.00
20648;DHT22;10483;44.646;10.924;2022-07-15T01:11:25;28.10;89.30
20648;DHT22;10483;44.646;10.924;2022-07-15T01:13:52;28.10;89.30
20648;DHT22;10483;44.646;10.924;2022-07-15T01:16:21;28.10;89.40
20648;DHT22;10483;44.646;10.924;2022-07-15T01:18:48;28.10;89.30
20648;DHT22;10483;44.646;10.924;2022-07-15T01:21:15;28.10;89.20
20648;DHT22;10483;44.646;10.924;2022-07-15T01:23:42;28.10;88.80
20648;DHT22;10483;44.646;10.924;2022-07-15T01:26:11;28.20;88.60
20648;DHT22;10483;44.646;10.924;2022-07-15T01:28:40;28.20;88.50
20648;DHT22;10483;44.646;10.924;2022-07-15T01:31:07;28.20;88.10
20648;DHT22;10483;44.646;10.924;2022-07-15T01:33:35;28.10;88.10
20648;DHT22;10483;44.646;10.924;2022-07-15T01:36:02;28.10;88.20
20648;DHT22;10483;44.646;10.924;2022-07-15T01:38:29;28.10;88.30
20648;DHT22;10483;44.646;10.924;2022-07-15T01:40:56;28.20;88.10
20648;DHT22;10483;44.646;10.924;2022-07-15T01:43:23;28.20;88.00
20648;DHT22;10483;44.646;10.924;2022-07-15T01:45:49;28.20;87.90
20648;DHT22;10483;44.646;10.924;2022-07-15T01:48:16;28.20;87.70
20648;DHT22;10483;44.646;10.924;2022-07-15T01:50:48;28.10;87.60
20648;DHT22;10483;44.646;10.924;2022-07-15T01:53:15;28.10;87.50
20648;DHT22;10483;44.646;10.924;2022-07-15T01:55:41;28.10;87.40
20648;DHT22;10483;44.646;10.924;2022-07-15T01:58:08;28.10;87.60
20648;DHT22;10483;44.646;10.924;2022-07-15T02:00:35;28.10;87.40
20648;DHT22;10483;44.646;10.924;2022-07-15T02:03:02;28.10;87.30
20648;DHT22;10483;44.646;10.924;2022-07-15T02:05:28;28.10;87.10
20648;DHT22;10483;44.646;10.924;2022-07-15T02:07:55;28.10;86.80
20648;DHT22;10483;44.646;10.924;2022-07-15T02:10:22;28.10;86.50
20648;DHT22;10483;44.646;10.924;2022-07-15T02:12:48;28.10;86.40
20648;DHT22;10483;44.646;10.924;2022-07-15T02:15:15;28.10;86.20
20648;DHT22;10483;44.646;10.924;2022-07-15T02:17:41;28.00;86.50
20648;DHT22;10483;44.646;10.924;2022-07-15T02:20:09;28.00;86.90
20648;DHT22;10483;44.646;10.924;2022-07-15T02:22:35;28.00;87.30
20648;DHT22;10483;44.646;10.924;2022-07-15T02:25:04;27.90;87.60
20648;DHT22;10483;44.646;10.924;2022-07-15T02:27:30;27.90;87.90
20648;DHT22;10483;44.646;10.924;2022-07-15T02:29:57;27.90;88.50
20648;DHT22;10483;44.646;10.924;2022-07-15T02:32:24;27.80;89.00
20648;DHT22;10483;44.646;10.924;2022-07-15T02:34:50;27.70;89.50
20648;DHT22;10483;44.646;10.924;2022-07-15T02:37:17;27.70;90.10
20648;DHT22;10483;44.646;10.924;2022-07-15T02:39:43;27.60;90.50
20648;DHT22;10483;44.646;10.924;2022-07-15T02:42:10;27.60;90.80
20648;DHT22;10483;44.646;10.924;2022-07-15T02:44:37;27.60;91.00
20648;DHT22;10483;44.646;10.924;2022-07-15T02:47:03;27.50;91.40
20648;DHT22;10483;44.646;10.924;2022-07-15T02:49:30;27.50;91.60
20648;DHT22;10483;44.646;10.924;2022-07-15T02:51:56;27.50;91.90
20648;DHT22;10483;44.646;10.924;2022-07-15T02:54:23;27.50;92.00
20648;DHT22;10483;44.646;10.924;2022-07-15T02:56:50;27.40;92.20
20648;DHT22;10483;44.646;10.924;2022-07-15T02:59:16;27.40;92.30
20648;DHT22;10483;44.646;10.924;2022-07-15T03:01:43;27.40;92.50
20648;DHT22;10483;44.646;10.924;2022-07-15T03:04:09;27.30;92.60
20648;DHT22;10483;44.646;10.924;2022-07-15T03:06:36;27.30;92.70
20648;DHT22;10483;44.646;10.924;2022-07-15T03:09:03;27.30;92.80
20648;DHT22;10483;44.646;10.924;2022-07-15T03:11:31;27.30;92.80
20648;DHT22;10483;44.646;10.924;2022-07-15T03:13:57;27.30;92.80
20648;DHT22;10483;44.646;10.924;2022-07-15T03:16:24;27.30;92.90
20648;DHT22;10483;44.646;10.924;2022-07-15T03:18:50;27.30;92.80
20648;DHT22;10483;44.646;10.924;2022-07-15T03:21:17;27.30;92.80
20648;DHT22;10483;44.646;10.924;2022-07-15T03:23:44;27.20;92.70
20648;DHT22;10483;44.646;10.924;2022-07-15T03:26:10;27.20;92.80
20648;DHT22;10483;44.646;10.924;2022-07-15T03:28:37;27.20;92.90
20648;DHT22;10483;44.646;10.924;2022-07-15T03:31:04;27.20;93.00
20648;DHT22;10483;44.646;10.924;2022-07-15T03:33:30;27.20;93.00
20648;DHT22;10483;44.646;10.924;2022-07-15T03:35:57;27.20;93.10
20648;DHT22;10483;44.646;10.924;2022-07-15T03:38:24;27.10;93.10
20648;DHT22;10483;44.646;10.924;2022-07-15T03:40:50;27.10;93.20
20648;DHT22;10483;44.646;10.924;2022-07-15T03:43:17;27.10;93.20
20648;DHT22;10483;44.646;10.924;2022-07-15T03:45:43;27.10;93.20
20648;DHT22;10483;44.646;10.924;2022-07-15T03:48:10;27.00;93.20
20648;DHT22;10483;44.646;10.924;2022-07-15T03:50:37;27.00;93.20
20648;DHT22;10483;44.646;10.924;2022-07-15T03:53:03;27.00;93.20
20648;DHT22;10483;44.646;10.924;2022-07-15T03:55:30;27.00;93.20
20648;DHT22;10483;44.646;10.924;2022-07-15T03:57:56;27.00;93.30
20648;DHT22;10483;44.646;10.924;2022-07-15T04:00:23;27.00;93.30
20648;DHT22;10483;44.646;10.924;2022-07-15T04:02:50;27.00;93.30
20648;DHT22;10483;44.646;10.924;2022-07-15T04:05:16;27.00;93.40
20648;DHT22;10483;44.646;10.924;2022-07-15T04:07:43;27.00;93.30
20648;DHT22;10483;44.646;10.924;2022-07-15T04:10:09;27.00;93.30
20648;DHT22;10483;44.646;10.924;2022-07-15T04:12:36;27.00;93.30
20648;DHT22;10483;44.646;10.924;2022-07-15T04:15:03;27.00;93.20
20648;DHT22;10483;44.646;10.924;2022-07-15T04:17:30;27.00;93.20
20648;DHT22;10483;44.646;10.924;2022-07-15T04:19:57;27.00;93.10
20648;DHT22;10483;44.646;10.924;2022-07-15T04:22:23;27.00;93.20
20648;DHT22;10483;44.646;10.924;2022-07-15T04:24:50;27.00;93.20
20648;DHT22;10483;44.646;10.924;2022-07-15T04:27:17;27.00;93.20
20648;DHT22;10483;44.646;10.924;2022-07-15T04:29:43;27.00;93.20
20648;DHT22;10483;44.646;10.924;2022-07-15T04:32:10;26.90;93.50
20648;DHT22;10483;44.646;10.924;2022-07-15T04:34:37;26.90;93.30
20648;DHT22;10483;44.646;10.924;2022-07-15T04:37:03;26.90;93.30
20648;DHT22;10483;44.646;10.924;2022-07-15T04:39:30;26.90;93.30
20648;DHT22;10483;44.646;10.924;2022-07-15T04:41:57;26.90;93.40
20648;DHT22;10483;44.646;10.924;2022-07-15T04:44:23;26.90;93.30
20648;DHT22;10483;44.646;10.924;2022-07-15T04:46:50;26.90;93.30
20648;DHT22;10483;44.646;10.924;2022-07-15T04:49:16;26.90;93.30
20648;DHT22;10483;44.646;10.924;2022-07-15T04:51:49;26.90;93.50
20648;DHT22;10483;44.646;10.924;2022-07-15T04:54:15;26.80;93.70
20648;DHT22;10483;44.646;10.924;2022-07-15T04:56:42;26.80;93.70
20648;DHT22;10483;44.646;10.924;2022-07-15T04:59:09;26.80;93.70
20648;DHT22;10483;44.646;10.924;2022-07-15T05:01:35;26.80;93.90
20648;DHT22;10483;44.646;10.924;2022-07-15T05:04:02;26.80;93.70
20648;DHT22;10483;44.646;10.924;2022-07-15T05:06:28;26.80;93.40
20648;DHT22;10483;44.646;10.924;2022-07-15T05:08:55;26.90;93.20
20648;DHT22;10483;44.646;10.924;2022-07-15T05:11:22;26.90;93.00
20648;DHT22;10483;44.646;10.924;2022-07-15T05:13:48;26.90;92.70
20648;DHT22;10483;44.646;10.924;2022-07-15T05:16:15;26.90;92.60
20648;DHT22;10483;44.646;10.924;2022-07-15T05:18:42;26.90;92.60
20648;DHT22;10483;44.646;10.924;2022-07-15T05:21:08;26.90;92.80
20648;DHT22;10483;44.646;10.924;2022-07-15T05:23:35;26.90;92.80
20648;DHT22;10483;44.646;10.924;2022-07-15T05:26:02;26.90;92.80
20648;DHT22;10483;44.646;10.924;2022-07-15T05:28:28;26.90;92.90
20648;DHT22;10483;44.646;10.924;2022-07-15T05:30:55;26.80;93.00
20648;DHT22;10483;44.646;10.924;2022-07-15T05:33:21;26.80;92.90
20648;DHT22;10483;44.646;10.924;2022-07-15T05:35:48;26.90;92.80
20648;DHT22;10483;44.646;10.924;2022-07-15T05:38:15;26.90;92.80
20648;DHT22;10483;44.646;10.924;2022-07-15T05:40:41;26.90;92.80
20648;DHT22;10483;44.646;10.924;2022-07-15T05:43:08;26.90;92.70
20648;DHT22;10483;44.646;10.924;2022-07-15T05:45:35;26.90;92.70
20648;DHT22;10483;44.646;10.924;2022-07-15T05:48:02;26.90;92.50
20648;DHT22;10483;44.646;10.924;2022-07-15T05:50:29;27.00;92.00
20648;DHT22;10483;44.646;10.924;2022-07-15T05:52:55;27.00;91.60
20648;DHT22;10483;44.646;10.924;2022-07-15T05:55:22;27.00;91.20
20648;DHT22;10483;44.646;10.924;2022-07-15T05:57:49;27.10;91.20
20648;DHT22;10483;44.646;10.924;2022-07-15T06:00:16;27.10;90.70
20648;DHT22;10483;44.646;10.924;2022-07-15T06:02:42;27.10;90.40
20648;DHT22;10483;44.646;10.924;2022-07-15T06:05:09;27.10;90.00
20648;DHT22;10483;44.646;10.924;2022-07-15T06:07:37;27.10;89.20
20648;DHT22;10483;44.646;10.924;2022-07-15T06:10:05;27.20;90.00
20648;DHT22;10483;44.646;10.924;2022-07-15T06:12:32;27.30;89.60
20648;DHT22;10483;44.646;10.924;2022-07-15T06:14:58;27.30;88.70
20648;DHT22;10483;44.646;10.924;2022-07-15T06:17:25;27.40;88.40
20648;DHT22;10483;44.646;10.924;2022-07-15T06:19:52;27.40;87.70
20648;DHT22;10483;44.646;10.924;2022-07-15T06:22:19;27.50;85.40
20648;DHT22;10483;44.646;10.924;2022-07-15T06:24:45;27.60;85.10
20648;DHT22;10483;44.646;10.924;2022-07-15T06:27:12;27.60;84.80
20648;DHT22;10483;44.646;10.924;2022-07-15T06:29:38;27.60;84.50
20648;DHT22;10483;44.646;10.924;2022-07-15T06:32:06;27.70;83.70
20648;DHT22;10483;44.646;10.924;2022-07-15T06:34:33;27.80;83.60
20648;DHT22;10483;44.646;10.924;2022-07-15T06:37:00;27.80;83.80
20648;DHT22;10483;44.646;10.924;2022-07-15T06:39:27;27.90;84.10
20648;DHT22;10483;44.646;10.924;2022-07-15T06:41:53;27.90;84.00
20648;DHT22;10483;44.646;10.924;2022-07-15T06:44:20;28.00;83.90
20648;DHT22;10483;44.646;10.924;2022-07-15T06:46:47;28.00;83.80
20648;DHT22;10483;44.646;10.924;2022-07-15T06:49:14;28.10;83.70
20648;DHT22;10483;44.646;10.924;2022-07-15T06:51:40;28.10;83.70
20648;DHT22;10483;44.646;10.924;2022-07-15T06:54:07;28.20;83.90
20648;DHT22;10483;44.646;10.924;2022-07-15T06:56:34;28.20;83.90
20648;DHT22;10483;44.646;10.924;2022-07-15T06:59:01;28.30;84.40
20648;DHT22;10483;44.646;10.924;2022-07-15T07:01:27;28.30;84.80
20648;DHT22;10483;44.646;10.924;2022-07-15T07:03:54;28.30;85.30
20648;DHT22;10483;44.646;10.924;2022-07-15T07:06:20;28.40;85.50
20648;DHT22;10483;44.646;10.924;2022-07-15T07:08:47;28.40;85.30
20648;DHT22;10483;44.646;10.924;2022-07-15T07:11:15;28.40;85.50
20648;DHT22;10483;44.646;10.924;2022-07-15T07:13:43;28.50;86.00
20648;DHT22;10483;44.646;10.924;2022-07-15T07:16:10;28.50;86.60
20648;DHT22;10483;44.646;10.924;2022-07-15T07:18:36;28.50;86.80
20648;DHT22;10483;44.646;10.924;2022-07-15T07:21:03;28.60;87.10
20648;DHT22;10483;44.646;10.924;2022-07-15T07:23:30;28.60;87.60
20648;DHT22;10483;44.646;10.924;2022-07-15T07:25:58;28.70;88.90
20648;DHT22;10483;44.646;10.924;2022-07-15T07:28:25;28.70;89.10
20648;DHT22;10483;44.646;10.924;2022-07-15T07:30:52;28.80;89.30
20648;DHT22;10483;44.646;10.924;2022-07-15T07:33:20;28.80;89.40
20648;DHT22;10483;44.646;10.924;2022-07-15T07:35:47;28.80;89.60
20648;DHT22;10483;44.646;10.924;2022-07-15T07:38:14;28.90;90.40
20648;DHT22;10483;44.646;10.924;2022-07-15T07:40:40;28.90;90.20
20648;DHT22;10483;44.646;10.924;2022-07-15T07:43:07;28.90;90.20
20648;DHT22;10483;44.646;10.924;2022-07-15T07:45:34;29.00;89.80
20648;DHT22;10483;44.646;10.924;2022-07-15T07:48:01;29.00;89.70
20648;DHT22;10483;44.646;10.924;2022-07-15T07:50:28;29.10;90.10
20648;DHT22;10483;44.646;10.924;2022-07-15T07:52:54;29.10;89.40
20648;DHT22;10483;44.646;10.924;2022-07-15T07:55:21;29.10;90.50
20648;DHT22;10483;44.646;10.924;2022-07-15T07:57:49;29.20;91.00
20648;DHT22;10483;44.646;10.924;2022-07-15T08:00:17;29.30;90.40
20648;DHT22;10483;44.646;10.924;2022-07-15T08:02:45;29.30;90.20
20648;DHT22;10483;44.646;10.924;2022-07-15T08:05:13;29.30;88.90
20648;DHT22;10483;44.646;10.924;2022-07-15T08:07:41;29.40;89.20
20648;DHT22;10483;44.646;10.924;2022-07-15T08:10:09;29.40;89.10
20648;DHT22;10483;44.646;10.924;2022-07-15T08:12:37;29.50;89.00
20648;DHT22;10483;44.646;10.924;2022-07-15T08:15:05;29.50;89.40
20648;DHT22;10483;44.646;10.924;2022-07-15T08:17:32;29.60;90.50
20648;DHT22;10483;44.646;10.924;2022-07-15T08:19:59;29.70;90.60
20648;DHT22;10483;44.646;10.924;2022-07-15T08:22:25;29.80;91.40
20648;DHT22;10483;44.646;10.924;2022-07-15T08:24:52;29.70;92.10
20648;DHT22;10483;44.646;10.924;2022-07-15T08:27:19;29.80;92.20
20648;DHT22;10483;44.646;10.924;2022-07-15T08:29:46;29.80;91.50
20648;DHT22;10483;44.646;10.924;2022-07-15T08:32:12;29.90;90.70
20648;DHT22;10483;44.646;10.924;2022-07-15T08:34:39;29.90;90.30
20648;DHT22;10483;44.646;10.924;2022-07-15T08:37:08;30.00;91.00
20648;DHT22;10483;44.646;10.924;2022-07-15T08:39:36;30.00;92.20
20648;DHT22;10483;44.646;10.924;2022-07-15T08:42:03;30.00;92.30
20648;DHT22;10483;44.646;10.924;2022-07-15T08:44:31;30.10;91.80
20648;DHT22;10483;44.646;10.924;2022-07-15T08:47:03;30.10;92.90
20648;DHT22;10483;44.646;10.924;2022-07-15T08:49:31;30.10;93.00
20648;DHT22;10483;44.646;10.924;2022-07-15T08:52:00;30.10;92.80
20648;DHT22;10483;44.646;10.924;2022-07-15T08:54:28;30.20;91.50
20648;DHT22;10483;44.646;10.924;2022-07-15T08:56:55;30.30;91.00
20648;DHT22;10483;44.646;10.924;2022-07-15T08:59:22;30.30;91.90
20648;DHT22;10483;44.646;10.924;2022-07-15T09:01:48;30.40;91.60
20648;DHT22;10483;44.646;10.924;2022-07-15T09:04:16;30.30;92.50
20648;DHT22;10483;44.646;10.924;2022-07-15T09:06:46;30.30;92.60
20648;DHT22;10483;44.646;10.924;2022-07-15T09:09:22;30.30;92.40
20648;DHT22;10483;44.646;10.924;2022-07-15T09:12:01;30.40;92.90
20648;DHT22;10483;44.646;10.924;2022-07-15T09:14:29;30.40;92.90
20648;DHT22;10483;44.646;10.924;2022-07-15T09:17:07;30.40;92.40
20648;DHT22;10483;44.646;10.924;2022-07-15T09:22:13;30.60;92.10
20648;DHT22;10483;44.646;10.924;2022-07-15T09:24:42;30.50;92.40
20648;DHT22;10483;44.646;10.924;2022-07-15T09:27:28;30.50;92.80
20648;DHT22;10483;44.646;10.924;2022-07-15T09:29:56;30.40;93.40
20648;DHT22;10483;44.646;10.924;2022-07-15T09:32:29;30.50;91.80
20648;DHT22;10483;44.646;10.924;2022-07-15T09:35:06;30.90;90.20
20648;DHT22;10483;44.646;10.924;2022-07-15T09:37:54;30.90;91.50
20648;DHT22;10483;44.646;10.924;2022-07-15T09:40:07;30.90;90.90
20648;DHT22;10483;44.646;10.924;2022-07-15T09:42:34;31.00;90.40
20648;DHT22;10483;44.646;10.924;2022-07-15T09:45:18;31.10;90.90
20648;DHT22;10483;44.646;10.924;2022-07-15T09:47:32;31.10;90.00
20648;DHT22;10483;44.646;10.924;2022-07-15T09:49:59;31.30;87.30
20648;DHT22;10483;44.646;10.924;2022-07-15T09:52:25;31.40;87.40
20648;DHT22;10483;44.646;10.924;2022-07-15T09:54:53;31.60;86.80
20648;DHT22;10483;44.646;10.924;2022-07-15T09:57:20;31.70;88.50
20648;DHT22;10483;44.646;10.924;2022-07-15T09:59:49;31.80;88.10
20648;DHT22;10483;44.646;10.924;2022-07-15T10:02:17;31.90;87.60
20648;DHT22;10483;44.646;10.924;2022-07-15T10:04:43;32.10;86.70
20648;DHT22;10483;44.646;10.924;2022-07-15T10:07:13;32.30;84.80
20648;DHT22;10483;44.646;10.924;2022-07-15T10:09:39;32.50;83.60
20648;DHT22;10483;44.646;10.924;2022-07-15T10:12:10;32.80;83.30
20648;DHT22;10483;44.646;10.924;2022-07-15T10:14:46;33.00;82.90
20648;DHT22;10483;44.646;10.924;2022-07-15T10:17:23;33.30;82.80
20648;DHT22;10483;44.646;10.924;2022-07-15T10:25:55;34.30;81.20
20648;DHT22;10483;44.646;10.924;2022-07-15T10:28:36;34.70;79.20
20648;DHT22;10483;44.646;10.924;2022-07-15T10:31:13;35.30;79.00
20648;DHT22;10483;44.646;10.924;2022-07-15T10:33:40;35.90;77.80
20648;DHT22;10483;44.646;10.924;2022-07-15T10:36:08;36.80;73.90
20648;DHT22;10483;44.646;10.924;2022-07-15T10:38:37;37.50;71.90
20648;DHT22;10483;44.646;10.924;2022-07-15T10:41:07;38.40;70.30
20648;DHT22;10483;44.646;10.924;2022-07-15T10:43:43;39.00;68.90
20648;DHT22;10483;44.646;10.924;2022-07-15T10:46:25;39.20;67.40
20648;DHT22;10483;44.646;10.924;2022-07-15T10:51:45;40.10;66.70
20648;DHT22;10483;44.646;10.924;2022-07-15T10:54:42;40.70;65.80
20648;DHT22;10483;44.646;10.924;2022-07-15T10:57:10;41.40;65.40
20648;DHT22;10483;44.646;10.924;2022-07-15T10:59:46;42.90;62.80
20648;DHT22;10483;44.646;10.924;2022-07-15T11:02:13;43.40;61.10
20648;DHT22;10483;44.646;10.924;2022-07-15T11:04:40;44.20;62.30
20648;DHT22;10483;44.646;10.924;2022-07-15T11:07:24;44.40;58.70
20648;DHT22;10483;44.646;10.924;2022-07-15T11:10:12;44.90;57.30
20648;DHT22;10483;44.646;10.924;2022-07-15T11:12:55;45.50;58.30
20648;DHT22;10483;44.646;10.924;2022-07-15T11:15:24;45.50;57.30
20648;DHT22;10483;44.646;10.924;2022-07-15T11:17:53;45.30;56.10
20648;DHT22;10483;44.646;10.924;2022-07-15T11:20:26;44.00;56.30
20648;DHT22;10483;44.646;10.924;2022-07-15T11:22:55;43.00;57.30
20648;DHT22;10483;44.646;10.924;2022-07-15T11:25:25;41.80;59.10
20648;DHT22;10483;44.646;10.924;2022-07-15T11:28:11;40.50;62.20
20648;DHT22;10483;44.646;10.924;2022-07-15T11:30:46;39.40;62.80
20648;DHT22;10483;44.646;10.924;2022-07-15T11:33:17;38.40;63.80
20648;DHT22;10483;44.646;10.924;2022-07-15T11:35:52;37.70;64.40
20648;DHT22;10483;44.646;10.924;2022-07-15T11:38:23;37.10;69.70
20648;DHT22;10483;44.646;10.924;2022-07-15T11:40:52;36.80;64.60
20648;DHT22;10483;44.646;10.924;2022-07-15T11:43:25;36.50;66.90
20648;DHT22;10483;44.646;10.924;2022-07-15T11:45:58;36.10;70.40
20648;DHT22;10483;44.646;10.924;2022-07-15T11:48:25;35.80;68.40
20648;DHT22;10483;44.646;10.924;2022-07-15T11:50:54;35.70;68.90
20648;DHT22;10483;44.646;10.924;2022-07-15T11:53:22;35.60;67.30
20648;DHT22;10483;44.646;10.924;2022-07-15T11:55:59;35.30;70.20
20648;DHT22;10483;44.646;10.924;2022-07-15T11:58:33;35.10;73.30
20648;DHT22;10483;44.646;10.924;2022-07-15T12:01:02;35.10;74.20
20648;DHT22;10483;44.646;10.924;2022-07-15T12:03:33;35.00;68.00
20648;DHT22;10483;44.646;10.924;2022-07-15T12:06:01;35.20;67.20
20648;DHT22;10483;44.646;10.924;2022-07-15T12:08:41;35.30;66.20
20648;DHT22;10483;44.646;10.924;2022-07-15T12:11:15;35.30;67.60
20648;DHT22;10483;44.646;10.924;2022-07-15T12:13:47;35.20;68.80
20648;DHT22;10483;44.646;10.924;2022-07-15T12:16:19;35.10;69.30
20648;DHT22;10483;44.646;10.924;2022-07-15T12:18:47;34.80;74.90
20648;DHT22;10483;44.646;10.924;2022-07-15T12:21:15;34.50;77.10
20648;DHT22;10483;44.646;10.924;2022-07-15T12:23:56;34.30;76.00
20648;DHT22;10483;44.646;10.924;2022-07-15T12:26:10;34.20;77.50
20648;DHT22;10483;44.646;10.924;2022-07-15T12:28:37;34.00;75.20
20648;DHT22;10483;44.646;10.924;2022-07-15T12:31:04;34.00;77.60
20648;DHT22;10483;44.646;10.924;2022-07-15T12:33:34;33.80;77.40
20648;DHT22;10483;44.646;10.924;2022-07-15T12:36:12;33.80;75.00
20648;DHT22;10483;44.646;10.924;2022-07-15T12:38:39;33.90;72.20
20648;DHT22;10483;44.646;10.924;2022-07-15T12:41:07;33.80;78.80
20648;DHT22;10483;44.646;10.924;2022-07-15T12:43:46;33.60;76.50
20648;DHT22;10483;44.646;10.924;2022-07-15T12:46:14;33.60;79.30
20648;DHT22;10483;44.646;10.924;2022-07-15T12:48:45;33.50;81.20
20648;DHT22;10483;44.646;10.924;2022-07-15T12:51:15;33.20;82.50
20648;DHT22;10483;44.646;10.924;2022-07-15T12:53:42;33.00;81.60
20648;DHT22;10483;44.646;10.924;2022-07-15T12:56:09;33.10;82.10
20648;DHT22;10483;44.646;10.924;2022-07-15T12:58:36;33.10;82.40
20648;DHT22;10483;44.646;10.924;2022-07-15T13:01:11;33.00;81.80
20648;DHT22;10483;44.646;10.924;2022-07-15T13:03:38;32.80;83.40
20648;DHT22;10483;44.646;10.924;2022-07-15T13:06:06;33.00;82.00
20648;DHT22;10483;44.646;10.924;2022-07-15T13:08:35;33.00;79.90
20648;DHT22;10483;44.646;10.924;2022-07-15T13:11:04;33.10;81.30
20648;DHT22;10483;44.646;10.924;2022-07-15T13:13:35;33.10;80.50
20648;DHT22;10483;44.646;10.924;2022-07-15T13:16:03;33.00;83.00
20648;DHT22;10483;44.646;10.924;2022-07-15T13:18:32;32.90;82.30
20648;DHT22;10483;44.646;10.924;2022-07-15T13:20:59;33.10;74.80
20648;DHT22;10483;44.646;10.924;2022-07-15T13:23:26;33.40;76.50
20648;DHT22;10483;44.646;10.924;2022-07-15T13:25:53;33.20;79.10
20648;DHT22;10483;44.646;10.924;2022-07-15T13:28:21;33.30;77.10
20648;DHT22;10483;44.646;10.924;2022-07-15T13:30:49;33.20;82.80
20648;DHT22;10483;44.646;10.924;2022-07-15T13:33:16;33.10;81.40
20648;DHT22;10483;44.646;10.924;2022-07-15T13:35:43;32.90;81.90
20648;DHT22;10483;44.646;10.924;2022-07-15T13:38:10;33.00;78.50
20648;DHT22;10483;44.646;10.924;2022-07-15T13:40:37;32.90;81.60
20648;DHT22;10483;44.646;10.924;2022-07-15T13:43:03;32.80;82.40
20648;DHT22;10483;44.646;10.924;2022-07-15T13:45:30;32.80;81.30
20648;DHT22;10483;44.646;10.924;2022-07-15T13:47:57;32.70;82.40
20648;DHT22;10483;44.646;10.924;2022-07-15T13:50:23;32.70;83.10
20648;DHT22;10483;44.646;10.924;2022-07-15T13:52:58;32.60;83.50
20648;DHT22;10483;44.646;10.924;2022-07-15T13:55:25;32.60;82.90
20648;DHT22;10483;44.646;10.924;2022-07-15T13:57:52;32.70;80.10
20648;DHT22;10483;44.646;10.924;2022-07-15T14:00:21;32.70;82.40
20648;DHT22;10483;44.646;10.924;2022-07-15T14:02:50;32.60;82.80
20648;DHT22;10483;44.646;10.924;2022-07-15T14:05:17;32.60;83.40
20648;DHT22;10483;44.646;10.924;2022-07-15T14:07:44;32.70;83.00
20648;DHT22;10483;44.646;10.924;2022-07-15T14:10:11;32.50;83.60
20648;DHT22;10483;44.646;10.924;2022-07-15T14:12:38;32.40;82.80
20648;DHT22;10483;44.646;10.924;2022-07-15T14:15:06;32.70;77.00
20648;DHT22;10483;44.646;10.924;2022-07-15T14:17:33;32.80;80.60
20648;DHT22;10483;44.646;10.924;2022-07-15T14:19:59;32.90;77.00
20648;DHT22;10483;44.646;10.924;2022-07-15T14:22:28;32.80;78.40
20648;DHT22;10483;44.646;10.924;2022-07-15T14:24:56;33.00;80.80
20648;DHT22;10483;44.646;10.924;2022-07-15T14:27:23;32.80;80.10
20648;DHT22;10483;44.646;10.924;2022-07-15T14:29:50;32.80;82.40
20648;DHT22;10483;44.646;10.924;2022-07-15T14:32:17;32.70;81.20
20648;DHT22;10483;44.646;10.924;2022-07-15T14:34:44;33.10;76.60
20648;DHT22;10483;44.646;10.924;2022-07-15T14:37:10;33.00;80.60
20648;DHT22;10483;44.646;10.924;2022-07-15T14:39:37;32.90;80.10
20648;DHT22;10483;44.646;10.924;2022-07-15T14:42:03;32.80;81.60
20648;DHT22;10483;44.646;10.924;2022-07-15T14:44:30;32.70;80.70
20648;DHT22;10483;44.646;10.924;2022-07-15T14:46:57;32.70;82.20
20648;DHT22;10483;44.646;10.924;2022-07-15T14:49:24;32.80;77.10
20648;DHT22;10483;44.646;10.924;2022-07-15T14:51:51;33.00;78.60
20648;DHT22;10483;44.646;10.924;2022-07-15T14:54:18;32.90;80.80
20648;DHT22;10483;44.646;10.924;2022-07-15T14:56:44;32.70;81.30
20648;DHT22;10483;44.646;10.924;2022-07-15T14:59:11;32.80;79.70
20648;DHT22;10483;44.646;10.924;2022-07-15T15:01:37;32.70;80.90
20648;DHT22;10483;44.646;10.924;2022-07-15T15:04:04;33.10;73.20
20648;DHT22;10483;44.646;10.924;2022-07-15T15:06:31;33.00;79.20
20648;DHT22;10483;44.646;10.924;2022-07-15T15:08:58;32.90;79.50
20648;DHT22;10483;44.646;10.924;2022-07-15T15:11:26;33.30;78.50
20648;DHT22;10483;44.646;10.924;2022-07-15T15:13:52;33.30;77.60
20648;DHT22;10483;44.646;10.924;2022-07-15T15:16:19;33.20;76.40
20648;DHT22;10483;44.646;10.924;2022-07-15T15:18:45;33.20;75.30
20648;DHT22;10483;44.646;10.924;2022-07-15T15:21:12;33.30;74.20
20648;DHT22;10483;44.646;10.924;2022-07-15T15:23:39;33.30;73.00
20648;DHT22;10483;44.646;10.924;2022-07-15T15:26:06;33.40;75.40
20648;DHT22;10483;44.646;10.924;2022-07-15T15:28:38;33.20;79.70
20648;DHT22;10483;44.646;10.924;2022-07-15T15:31:05;33.10;77.50
20648;DHT22;10483;44.646;10.924;2022-07-15T15:33:32;32.90;80.80